sensor_id;sensor_type;location;lat;lon;timestamp;P1;durP1;ratioP1;P2;durP2;ratioP2
70369;SDS011;57790;51.356;-2.906;2023-04-03T00:02:35;8.50;;;1.80;;
70369;SDS011;57790;51.356;-2.906;2023-04-03T00:05:35;6.23;;;1.67;;
70369;SDS011;57790;51.356;-2.906;2023-04-03T00:08:36;5.85;;;1.60;;
70369;SDS011;57790;51.356;-2.906;2023-04-03T00:11:36;6.57;;;1.67;;
70369;SDS011;57790;51.356;-2.906;2023-04-03T00:14:37;4.53;;;1.30;;
70369;SDS011;57790;51.356;-2.906;2023-04-03T00:17:37;5.77;;;1.50;;
70369;SDS011;57790;51.356;-2.906;2023-04-03T00:20:38;4.35;;;1.15;;
70369;SDS011;57790;51.356;-2.906;2023-04-03T00:23:38;5.63;;;1.50;;
70369;SDS011;57790;51.356;-2.906;2023-04-03T00:26:38;6.17;;;1.60;;
70369;SDS011;57790;51.356;-2.906;2023-04-03T00:29:39;6.00;;;1.43;;
70369;SDS011;57790;51.356;-2.906;2023-04-03T00:32:39;5.03;;;1.42;;
70369;SDS011;57790;51.356;-2.906;2023-04-03T00:35:40;4.83;;;1.40;;
70369;SDS011;57790;51.356;-2.906;2023-04-03T00:38:41;5.78;;;1.35;;
70369;SDS011;57790;51.356;-2.906;2023-04-03T00:41:41;7.30;;;1.50;;
70369;SDS011;57790;51.356;-2.906;2023-04-03T00:47:43;5.18;;;1.30;;
70369;SDS011;57790;51.356;-2.906;2023-04-03T00:50:44;6.63;;;1.25;;
70369;SDS011;57790;51.356;-2.906;2023-04-03T00:53:55;5.50;;;1.20;;
70369;SDS011;57790;51.356;-2.906;2023-04-03T00:57:00;7.45;;;1.48;;
70369;SDS011;57790;51.356;-2.906;2023-04-03T01:00:02;4.43;;;1.37;;
70369;SDS011;57790;51.356;-2.906;2023-04-03T01:03:11;5.10;;;1.10;;
70369;SDS011;57790;51.356;-2.906;2023-04-03T01:06:11;5.20;;;1.07;;
70369;SDS011;57790;51.356;-2.906;2023-04-03T01:09:16;4.35;;;1.10;;
70369;SDS011;57790;51.356;-2.906;2023-04-03T01:12:21;6.93;;;1.50;;
70369;SDS011;57790;51.356;-2.906;2023-04-03T01:15:27;6.30;;;1.25;;
70369;SDS011;57790;51.356;-2.906;2023-04-03T01:18:36;5.72;;;1.15;;
70369;SDS011;57790;51.356;-2.906;2023-04-03T01:24:53;7.05;;;1.48;;
70369;SDS011;57790;51.356;-2.906;2023-04-03T01:27:54;5.23;;;1.23;;
70369;SDS011;57790;51.356;-2.906;2023-04-03T01:33:55;7.93;;;1.50;;
70369;SDS011;57790;51.356;-2.906;2023-04-03T01:36:56;5.13;;;1.27;;
70369;SDS011;57790;51.356;-2.906;2023-04-03T01:39:56;5.07;;;1.10;;
70369;SDS011;57790;51.356;-2.906;2023-04-03T01:42:57;3.90;;;1.07;;
70369;SDS011;57790;51.356;-2.906;2023-04-03T01:45:57;6.23;;;1.10;;
70369;SDS011;57790;51.356;-2.906;2023-04-03T01:48:58;4.67;;;1.17;;
70369;SDS011;57790;51.356;-2.906;2023-04-03T01:51:58;4.07;;;0.97;;
70369;SDS011;57790;51.356;-2.906;2023-04-03T01:54:58;6.00;;;1.20;;
70369;SDS011;57790;51.356;-2.906;2023-04-03T01:57:59;4.13;;;1.00;;
70369;SDS011;57790;51.356;-2.906;2023-04-03T02:00:59;5.23;;;1.20;;
70369;SDS011;57790;51.356;-2.906;2023-04-03T02:04:00;5.20;;;1.13;;
70369;SDS011;57790;51.356;-2.906;2023-04-03T02:07:00;5.77;;;1.50;;
70369;SDS011;57790;51.356;-2.906;2023-04-03T02:10:01;5.55;;;1.20;;
70369;SDS011;57790;51.356;-2.906;2023-04-03T02:13:02;3.70;;;0.93;;
70369;SDS011;57790;51.356;-2.906;2023-04-03T02:16:06;10.27;;;1.13;;
70369;SDS011;57790;51.356;-2.906;2023-04-03T02:19:08;4.90;;;1.10;;
70369;SDS011;57790;51.356;-2.906;2023-04-03T02:22:08;4.97;;;1.40;;
70369;SDS011;57790;51.356;-2.906;2023-04-03T02:25:09;4.47;;;1.00;;
70369;SDS011;57790;51.356;-2.906;2023-04-03T02:28:10;6.88;;;1.20;;
70369;SDS011;57790;51.356;-2.906;2023-04-03T02:31:11;4.47;;;1.10;;
70369;SDS011;57790;51.356;-2.906;2023-04-03T02:34:11;4.97;;;1.20;;
70369;SDS011;57790;51.356;-2.906;2023-04-03T02:37:11;5.80;;;1.20;;
70369;SDS011;57790;51.356;-2.906;2023-04-03T02:40:12;6.13;;;1.10;;
70369;SDS011;57790;51.356;-2.906;2023-04-03T02:43:12;4.47;;;1.13;;
70369;SDS011;57790;51.356;-2.906;2023-04-03T02:46:13;6.97;;;1.27;;
70369;SDS011;57790;51.356;-2.906;2023-04-03T02:49:15;5.65;;;1.10;;
70369;SDS011;57790;51.356;-2.906;2023-04-03T02:52:15;4.47;;;1.10;;
70369;SDS011;57790;51.356;-2.906;2023-04-03T02:55:16;5.77;;;1.27;;
70369;SDS011;57790;51.356;-2.906;2023-04-03T02:58:16;5.50;;;1.27;;
70369;SDS011;57790;51.356;-2.906;2023-04-03T03:01:17;4.60;;;1.30;;
70369;SDS011;57790;51.356;-2.906;2023-04-03T03:04:17;4.73;;;1.47;;
70369;SDS011;57790;51.356;-2.906;2023-04-03T03:07:18;5.30;;;1.30;;
70369;SDS011;57790;51.356;-2.906;2023-04-03T03:10:18;6.60;;;1.20;;
70369;SDS011;57790;51.356;-2.906;2023-04-03T03:13:19;6.97;;;1.33;;
70369;SDS011;57790;51.356;-2.906;2023-04-03T03:16:20;4.63;;;1.13;;
70369;SDS011;57790;51.356;-2.906;2023-04-03T03:19:20;5.13;;;1.20;;
70369;SDS011;57790;51.356;-2.906;2023-04-03T03:22:20;5.33;;;1.30;;
70369;SDS011;57790;51.356;-2.906;2023-04-03T03:25:21;5.63;;;1.30;;
70369;SDS011;57790;51.356;-2.906;2023-04-03T03:28:22;5.97;;;1.50;;
70369;SDS011;57790;51.356;-2.906;2023-04-03T03:31:22;6.70;;;1.47;;
70369;SDS011;57790;51.356;-2.906;2023-04-03T03:34:23;4.55;;;1.20;;
70369;SDS011;57790;51.356;-2.906;2023-04-03T03:37:23;3.43;;;0.93;;
70369;SDS011;57790;51.356;-2.906;2023-04-03T03:40:24;6.20;;;1.30;;
70369;SDS011;57790;51.356;-2.906;2023-04-03T03:43:24;7.40;;;1.37;;
70369;SDS011;57790;51.356;-2.906;2023-04-03T03:46:25;6.32;;;1.30;;
70369;SDS011;57790;51.356;-2.906;2023-04-03T03:49:26;6.00;;;1.33;;
70369;SDS011;57790;51.356;-2.906;2023-04-03T03:52:26;5.67;;;1.07;;
70369;SDS011;57790;51.356;-2.906;2023-04-03T03:55:26;6.80;;;1.60;;
70369;SDS011;57790;51.356;-2.906;2023-04-03T03:58:27;6.93;;;1.53;;
70369;SDS011;57790;51.356;-2.906;2023-04-03T04:01:27;6.35;;;1.45;;
70369;SDS011;57790;51.356;-2.906;2023-04-03T04:04:28;12.00;;;1.50;;
70369;SDS011;57790;51.356;-2.906;2023-04-03T04:07:28;6.43;;;1.30;;
70369;SDS011;57790;51.356;-2.906;2023-04-03T04:10:29;5.57;;;1.25;;
70369;SDS011;57790;51.356;-2.906;2023-04-03T04:13:29;6.27;;;1.30;;
70369;SDS011;57790;51.356;-2.906;2023-04-03T04:16:30;4.90;;;1.17;;
70369;SDS011;57790;51.356;-2.906;2023-04-03T04:19:30;6.77;;;1.37;;
70369;SDS011;57790;51.356;-2.906;2023-04-03T04:22:31;8.05;;;1.40;;
70369;SDS011;57790;51.356;-2.906;2023-04-03T04:25:31;5.63;;;1.57;;
70369;SDS011;57790;51.356;-2.906;2023-04-03T04:28:32;6.85;;;1.52;;
70369;SDS011;57790;51.356;-2.906;2023-04-03T04:31:33;6.67;;;1.30;;
70369;SDS011;57790;51.356;-2.906;2023-04-03T04:34:33;5.70;;;1.20;;
70369;SDS011;57790;51.356;-2.906;2023-04-03T04:37:33;7.70;;;1.47;;
70369;SDS011;57790;51.356;-2.906;2023-04-03T04:40:34;5.07;;;1.23;;
70369;SDS011;57790;51.356;-2.906;2023-04-03T04:43:34;6.00;;;1.40;;
70369;SDS011;57790;51.356;-2.906;2023-04-03T04:46:35;5.75;;;1.20;;
70369;SDS011;57790;51.356;-2.906;2023-04-03T04:49:35;5.63;;;1.27;;
70369;SDS011;57790;51.356;-2.906;2023-04-03T04:52:36;6.70;;;1.30;;
70369;SDS011;57790;51.356;-2.906;2023-04-03T04:55:37;6.43;;;1.30;;
70369;SDS011;57790;51.356;-2.906;2023-04-03T04:58:37;6.33;;;1.47;;
70369;SDS011;57790;51.356;-2.906;2023-04-03T05:01:38;5.57;;;1.60;;
70369;SDS011;57790;51.356;-2.906;2023-04-03T05:04:39;7.63;;;1.30;;
70369;SDS011;57790;51.356;-2.906;2023-04-03T05:07:39;5.47;;;1.30;;
70369;SDS011;57790;51.356;-2.906;2023-04-03T05:10:41;5.22;;;1.40;;
70369;SDS011;57790;51.356;-2.906;2023-04-03T05:13:42;6.05;;;1.45;;
70369;SDS011;57790;51.356;-2.906;2023-04-03T05:16:42;5.27;;;1.40;;
70369;SDS011;57790;51.356;-2.906;2023-04-03T05:19:42;5.47;;;1.30;;
70369;SDS011;57790;51.356;-2.906;2023-04-03T05:22:43;4.97;;;1.10;;
70369;SDS011;57790;51.356;-2.906;2023-04-03T05:25:43;6.17;;;1.27;;
70369;SDS011;57790;51.356;-2.906;2023-04-03T05:28:45;4.27;;;1.10;;
70369;SDS011;57790;51.356;-2.906;2023-04-03T05:31:45;5.77;;;1.20;;
70369;SDS011;57790;51.356;-2.906;2023-04-03T05:34:46;4.70;;;1.10;;
70369;SDS011;57790;51.356;-2.906;2023-04-03T05:37:46;5.37;;;1.13;;
70369;SDS011;57790;51.356;-2.906;2023-04-03T05:40:46;5.53;;;1.17;;
70369;SDS011;57790;51.356;-2.906;2023-04-03T05:43:47;5.97;;;1.10;;
70369;SDS011;57790;51.356;-2.906;2023-04-03T05:46:47;6.17;;;1.30;;
70369;SDS011;57790;51.356;-2.906;2023-04-03T05:49:48;7.43;;;1.20;;
70369;SDS011;57790;51.356;-2.906;2023-04-03T05:52:49;6.00;;;1.30;;
70369;SDS011;57790;51.356;-2.906;2023-04-03T05:55:52;7.78;;;1.02;;
70369;SDS011;57790;51.356;-2.906;2023-04-03T05:58:53;3.63;;;0.90;;
70369;SDS011;57790;51.356;-2.906;2023-04-03T06:01:55;6.30;;;1.02;;
70369;SDS011;57790;51.356;-2.906;2023-04-03T06:04:55;5.83;;;1.30;;
70369;SDS011;57790;51.356;-2.906;2023-04-03T06:07:55;2.97;;;0.80;;
70369;SDS011;57790;51.356;-2.906;2023-04-03T06:10:57;4.78;;;1.00;;
70369;SDS011;57790;51.356;-2.906;2023-04-03T06:13:57;4.40;;;1.03;;
70369;SDS011;57790;51.356;-2.906;2023-04-03T06:16:57;4.40;;;0.97;;
70369;SDS011;57790;51.356;-2.906;2023-04-03T06:19:59;6.13;;;1.10;;
70369;SDS011;57790;51.356;-2.906;2023-04-03T06:23:00;6.47;;;1.00;;
70369;SDS011;57790;51.356;-2.906;2023-04-03T06:26:00;3.83;;;0.80;;
70369;SDS011;57790;51.356;-2.906;2023-04-03T06:29:00;5.03;;;1.00;;
70369;SDS011;57790;51.356;-2.906;2023-04-03T06:32:02;5.03;;;0.80;;
70369;SDS011;57790;51.356;-2.906;2023-04-03T06:35:03;3.83;;;0.97;;
70369;SDS011;57790;51.356;-2.906;2023-04-03T06:38:04;6.40;;;1.40;;
70369;SDS011;57790;51.356;-2.906;2023-04-03T06:41:09;4.45;;;1.00;;
70369;SDS011;57790;51.356;-2.906;2023-04-03T06:44:10;5.63;;;1.03;;
70369;SDS011;57790;51.356;-2.906;2023-04-03T06:47:11;7.32;;;1.60;;
70369;SDS011;57790;51.356;-2.906;2023-04-03T06:50:15;6.83;;;1.17;;
70369;SDS011;57790;51.356;-2.906;2023-04-03T06:53:15;6.40;;;0.95;;
70369;SDS011;57790;51.356;-2.906;2023-04-03T06:56:16;4.37;;;0.90;;
70369;SDS011;57790;51.356;-2.906;2023-04-03T06:59:17;6.32;;;1.30;;
70369;SDS011;57790;51.356;-2.906;2023-04-03T07:02:17;7.40;;;1.20;;
70369;SDS011;57790;51.356;-2.906;2023-04-03T07:05:18;7.50;;;1.25;;
70369;SDS011;57790;51.356;-2.906;2023-04-03T07:08:20;6.53;;;1.10;;
70369;SDS011;57790;51.356;-2.906;2023-04-03T07:11:20;5.30;;;0.88;;
70369;SDS011;57790;51.356;-2.906;2023-04-03T07:14:22;3.90;;;0.87;;
70369;SDS011;57790;51.356;-2.906;2023-04-03T07:17:22;4.93;;;0.90;;
70369;SDS011;57790;51.356;-2.906;2023-04-03T07:20:23;5.40;;;1.10;;
70369;SDS011;57790;51.356;-2.906;2023-04-03T07:23:23;3.80;;;1.00;;
70369;SDS011;57790;51.356;-2.906;2023-04-03T07:26:24;6.97;;;1.17;;
70369;SDS011;57790;51.356;-2.906;2023-04-03T07:29:25;3.77;;;0.90;;
70369;SDS011;57790;51.356;-2.906;2023-04-03T07:32:25;5.23;;;1.10;;
70369;SDS011;57790;51.356;-2.906;2023-04-03T07:35:26;3.63;;;0.80;;
70369;SDS011;57790;51.356;-2.906;2023-04-03T07:38:27;5.17;;;1.07;;
70369;SDS011;57790;51.356;-2.906;2023-04-03T07:41:27;6.05;;;1.20;;
70369;SDS011;57790;51.356;-2.906;2023-04-03T07:44:28;6.07;;;1.10;;
70369;SDS011;57790;51.356;-2.906;2023-04-03T07:47:29;4.90;;;1.10;;
70369;SDS011;57790;51.356;-2.906;2023-04-03T07:50:30;4.77;;;1.00;;
70369;SDS011;57790;51.356;-2.906;2023-04-03T07:53:32;7.22;;;0.98;;
70369;SDS011;57790;51.356;-2.906;2023-04-03T07:56:33;7.05;;;1.05;;
70369;SDS011;57790;51.356;-2.906;2023-04-03T07:59:33;4.93;;;0.97;;
70369;SDS011;57790;51.356;-2.906;2023-04-03T08:02:34;4.97;;;0.90;;
70369;SDS011;57790;51.356;-2.906;2023-04-03T08:05:38;3.28;;;0.70;;
70369;SDS011;57790;51.356;-2.906;2023-04-03T08:08:43;5.10;;;0.90;;
70369;SDS011;57790;51.356;-2.906;2023-04-03T08:11:43;5.03;;;0.70;;
70369;SDS011;57790;51.356;-2.906;2023-04-03T08:14:44;4.05;;;0.73;;
70369;SDS011;57790;51.356;-2.906;2023-04-03T08:17:44;3.83;;;0.77;;
70369;SDS011;57790;51.356;-2.906;2023-04-03T08:20:45;7.03;;;0.90;;
70369;SDS011;57790;51.356;-2.906;2023-04-03T08:23:47;3.40;;;0.77;;
70369;SDS011;57790;51.356;-2.906;2023-04-03T08:26:49;6.13;;;0.93;;
70369;SDS011;57790;51.356;-2.906;2023-04-03T08:29:50;4.87;;;1.00;;
70369;SDS011;57790;51.356;-2.906;2023-04-03T08:32:51;4.82;;;0.90;;
70369;SDS011;57790;51.356;-2.906;2023-04-03T08:35:51;4.37;;;0.80;;
70369;SDS011;57790;51.356;-2.906;2023-04-03T08:38:52;5.27;;;1.00;;
70369;SDS011;57790;51.356;-2.906;2023-04-03T08:41:55;4.00;;;0.80;;
70369;SDS011;57790;51.356;-2.906;2023-04-03T08:44:59;6.25;;;1.05;;
70369;SDS011;57790;51.356;-2.906;2023-04-03T08:48:27;5.20;;;0.80;;
70369;SDS011;57790;51.356;-2.906;2023-04-03T08:51:44;6.65;;;0.98;;
70369;SDS011;57790;51.356;-2.906;2023-04-03T08:57:51;2.45;;;0.73;;
70369;SDS011;57790;51.356;-2.906;2023-04-03T09:01:00;5.32;;;0.85;;
70369;SDS011;57790;51.356;-2.906;2023-04-03T09:04:11;7.37;;;1.10;;
70369;SDS011;57790;51.356;-2.906;2023-04-03T09:07:15;5.07;;;0.85;;
70369;SDS011;57790;51.356;-2.906;2023-04-03T09:10:24;4.40;;;0.80;;
70369;SDS011;57790;51.356;-2.906;2023-04-03T09:14:12;6.07;;;0.75;;
70369;SDS011;57790;51.356;-2.906;2023-04-03T09:20:39;8.27;;;0.70;;
70369;SDS011;57790;51.356;-2.906;2023-04-03T09:23:50;3.72;;;0.60;;
70369;SDS011;57790;51.356;-2.906;2023-04-03T09:27:00;5.65;;;1.10;;
70369;SDS011;57790;51.356;-2.906;2023-04-03T09:30:04;4.72;;;0.73;;
70369;SDS011;57790;51.356;-2.906;2023-04-03T09:33:06;6.43;;;0.88;;
70369;SDS011;57790;51.356;-2.906;2023-04-03T09:36:08;6.67;;;0.87;;
70369;SDS011;57790;51.356;-2.906;2023-04-03T09:39:16;6.95;;;1.00;;
70369;SDS011;57790;51.356;-2.906;2023-04-03T09:42:21;5.10;;;0.90;;
70369;SDS011;57790;51.356;-2.906;2023-04-03T09:45:27;5.28;;;0.90;;
70369;SDS011;57790;51.356;-2.906;2023-04-03T09:48:32;6.07;;;1.02;;
70369;SDS011;57790;51.356;-2.906;2023-04-03T09:51:32;7.60;;;1.13;;
70369;SDS011;57790;51.356;-2.906;2023-04-03T09:54:34;5.67;;;1.10;;
70369;SDS011;57790;51.356;-2.906;2023-04-03T09:57:40;6.63;;;1.02;;
70369;SDS011;57790;51.356;-2.906;2023-04-03T10:00:41;2.40;;;0.63;;
70369;SDS011;57790;51.356;-2.906;2023-04-03T10:03:41;4.87;;;1.03;;
70369;SDS011;57790;51.356;-2.906;2023-04-03T10:06:47;5.43;;;1.10;;
70369;SDS011;57790;51.356;-2.906;2023-04-03T10:09:59;5.00;;;1.17;;
70369;SDS011;57790;51.356;-2.906;2023-04-03T10:13:22;6.38;;;0.90;;
70369;SDS011;57790;51.356;-2.906;2023-04-03T10:16:32;7.77;;;1.23;;
70369;SDS011;57790;51.356;-2.906;2023-04-03T10:19:40;4.68;;;0.90;;
70369;SDS011;57790;51.356;-2.906;2023-04-03T10:33:16;4.83;;;0.90;;
70369;SDS011;57790;51.356;-2.906;2023-04-03T10:36:54;6.25;;;1.05;;
70369;SDS011;57790;51.356;-2.906;2023-04-03T10:40:08;2.97;;;0.77;;
70369;SDS011;57790;51.356;-2.906;2023-04-03T10:43:21;5.35;;;0.90;;
70369;SDS011;57790;51.356;-2.906;2023-04-03T10:59:48;4.93;;;1.10;;
70369;SDS011;57790;51.356;-2.906;2023-04-03T11:02:55;4.75;;;1.00;;
70369;SDS011;57790;51.356;-2.906;2023-04-03T11:06:05;8.80;;;1.30;;
70369;SDS011;57790;51.356;-2.906;2023-04-03T11:12:21;5.25;;;1.15;;
70369;SDS011;57790;51.356;-2.906;2023-04-03T11:15:33;7.55;;;0.90;;
70369;SDS011;57790;51.356;-2.906;2023-04-03T11:19:11;3.90;;;0.90;;
70369;SDS011;57790;51.356;-2.906;2023-04-03T11:22:29;7.88;;;1.10;;
70369;SDS011;57790;51.356;-2.906;2023-04-03T11:25:33;5.13;;;1.35;;
70369;SDS011;57790;51.356;-2.906;2023-04-03T11:28:37;5.53;;;1.05;;
70369;SDS011;57790;51.356;-2.906;2023-04-03T11:34:50;5.23;;;1.30;;
70369;SDS011;57790;51.356;-2.906;2023-04-03T11:37:54;5.25;;;1.00;;
70369;SDS011;57790;51.356;-2.906;2023-04-03T11:40:56;5.65;;;1.40;;
70369;SDS011;57790;51.356;-2.906;2023-04-03T11:43:59;9.05;;;1.40;;
70369;SDS011;57790;51.356;-2.906;2023-04-03T11:47:04;6.90;;;1.60;;
70369;SDS011;57790;51.356;-2.906;2023-04-03T11:50:08;5.73;;;1.30;;
70369;SDS011;57790;51.356;-2.906;2023-04-03T11:53:37;5.47;;;1.25;;
70369;SDS011;57790;51.356;-2.906;2023-04-03T11:56:39;7.35;;;1.38;;
70369;SDS011;57790;51.356;-2.906;2023-04-03T11:59:39;5.82;;;1.40;;
70369;SDS011;57790;51.356;-2.906;2023-04-03T12:02:41;7.43;;;1.30;;
70369;SDS011;57790;51.356;-2.906;2023-04-03T12:05:42;6.43;;;1.45;;
70369;SDS011;57790;51.356;-2.906;2023-04-03T12:08:47;7.37;;;1.20;;
70369;SDS011;57790;51.356;-2.906;2023-04-03T12:11:51;7.32;;;1.40;;
70369;SDS011;57790;51.356;-2.906;2023-04-03T12:14:52;4.38;;;1.40;;
70369;SDS011;57790;51.356;-2.906;2023-04-03T12:17:52;5.90;;;1.27;;
70369;SDS011;57790;51.356;-2.906;2023-04-03T12:23:56;6.50;;;1.40;;
70369;SDS011;57790;51.356;-2.906;2023-04-03T12:27:25;5.95;;;1.60;;
70369;SDS011;57790;51.356;-2.906;2023-04-03T12:30:40;6.30;;;1.40;;
70369;SDS011;57790;51.356;-2.906;2023-04-03T12:37:07;4.97;;;1.33;;
70369;SDS011;57790;51.356;-2.906;2023-04-03T12:46:58;7.10;;;1.52;;
70369;SDS011;57790;51.356;-2.906;2023-04-03T12:50:02;6.88;;;1.75;;
70369;SDS011;57790;51.356;-2.906;2023-04-03T12:53:05;8.17;;;1.57;;
70369;SDS011;57790;51.356;-2.906;2023-04-03T12:56:25;6.70;;;1.53;;
70369;SDS011;57790;51.356;-2.906;2023-04-03T12:59:29;6.45;;;1.63;;
70369;SDS011;57790;51.356;-2.906;2023-04-03T13:02:30;7.80;;;1.53;;
70369;SDS011;57790;51.356;-2.906;2023-04-03T13:05:37;5.87;;;1.50;;
70369;SDS011;57790;51.356;-2.906;2023-04-03T13:08:38;7.10;;;1.60;;
70369;SDS011;57790;51.356;-2.906;2023-04-03T13:11:50;6.97;;;2.15;;
70369;SDS011;57790;51.356;-2.906;2023-04-03T13:14:59;7.75;;;2.08;;
70369;SDS011;57790;51.356;-2.906;2023-04-03T13:18:01;7.53;;;1.70;;
70369;SDS011;57790;51.356;-2.906;2023-04-03T13:21:06;6.07;;;1.80;;
70369;SDS011;57790;51.356;-2.906;2023-04-03T13:24:13;5.77;;;1.67;;
70369;SDS011;57790;51.356;-2.906;2023-04-03T13:27:14;6.13;;;1.70;;
70369;SDS011;57790;51.356;-2.906;2023-04-03T13:30:24;5.68;;;1.50;;
70369;SDS011;57790;51.356;-2.906;2023-04-03T13:33:29;7.83;;;1.70;;
70369;SDS011;57790;51.356;-2.906;2023-04-03T13:36:33;5.07;;;1.50;;
70369;SDS011;57790;51.356;-2.906;2023-04-03T13:39:40;5.70;;;1.60;;
70369;SDS011;57790;51.356;-2.906;2023-04-03T13:42:41;5.83;;;1.43;;
70369;SDS011;57790;51.356;-2.906;2023-04-03T13:45:53;4.68;;;1.50;;
70369;SDS011;57790;51.356;-2.906;2023-04-03T13:52:38;7.15;;;1.90;;
70369;SDS011;57790;51.356;-2.906;2023-04-03T13:56:05;5.07;;;1.58;;
70369;SDS011;57790;51.356;-2.906;2023-04-03T14:05:28;6.72;;;1.90;;
70369;SDS011;57790;51.356;-2.906;2023-04-03T14:08:29;4.63;;;1.53;;
70369;SDS011;57790;51.356;-2.906;2023-04-03T14:11:30;7.53;;;1.70;;
70369;SDS011;57790;51.356;-2.906;2023-04-03T14:14:32;8.63;;;1.63;;
70369;SDS011;57790;51.356;-2.906;2023-04-03T14:17:35;7.38;;;1.80;;
70369;SDS011;57790;51.356;-2.906;2023-04-03T14:20:36;6.47;;;1.80;;
70369;SDS011;57790;51.356;-2.906;2023-04-03T14:23:36;7.90;;;1.80;;
70369;SDS011;57790;51.356;-2.906;2023-04-03T14:26:36;6.10;;;1.80;;
70369;SDS011;57790;51.356;-2.906;2023-04-03T14:29:37;5.15;;;1.45;;
70369;SDS011;57790;51.356;-2.906;2023-04-03T14:32:38;8.60;;;1.87;;
70369;SDS011;57790;51.356;-2.906;2023-04-03T14:35:38;6.60;;;1.60;;
70369;SDS011;57790;51.356;-2.906;2023-04-03T14:38:39;5.93;;;1.50;;
70369;SDS011;57790;51.356;-2.906;2023-04-03T14:41:41;4.20;;;1.30;;
70369;SDS011;57790;51.356;-2.906;2023-04-03T14:44:42;6.63;;;1.70;;
70369;SDS011;57790;51.356;-2.906;2023-04-03T14:47:44;9.40;;;1.70;;
70369;SDS011;57790;51.356;-2.906;2023-04-03T14:50:48;5.57;;;1.42;;
70369;SDS011;57790;51.356;-2.906;2023-04-03T14:53:49;5.87;;;1.50;;
70369;SDS011;57790;51.356;-2.906;2023-04-03T14:56:50;6.90;;;1.70;;
70369;SDS011;57790;51.356;-2.906;2023-04-03T14:59:50;5.77;;;1.80;;
70369;SDS011;57790;51.356;-2.906;2023-04-03T15:02:51;4.30;;;1.38;;
70369;SDS011;57790;51.356;-2.906;2023-04-03T15:05:52;5.70;;;1.50;;
70369;SDS011;57790;51.356;-2.906;2023-04-03T15:08:52;6.80;;;1.63;;
70369;SDS011;57790;51.356;-2.906;2023-04-03T15:11:53;7.43;;;1.60;;
70369;SDS011;57790;51.356;-2.906;2023-04-03T15:14:54;7.82;;;1.73;;
70369;SDS011;57790;51.356;-2.906;2023-04-03T15:17:55;5.87;;;1.63;;
70369;SDS011;57790;51.356;-2.906;2023-04-03T15:20:57;7.10;;;2.13;;
70369;SDS011;57790;51.356;-2.906;2023-04-03T15:23:58;7.70;;;2.10;;
70369;SDS011;57790;51.356;-2.906;2023-04-03T15:26:59;5.77;;;1.63;;
70369;SDS011;57790;51.356;-2.906;2023-04-03T15:30:00;5.57;;;1.80;;
70369;SDS011;57790;51.356;-2.906;2023-04-03T15:33:01;7.07;;;2.07;;
70369;SDS011;57790;51.356;-2.906;2023-04-03T15:36:01;5.90;;;1.90;;
70369;SDS011;57790;51.356;-2.906;2023-04-03T15:39:02;8.57;;;1.90;;
70369;SDS011;57790;51.356;-2.906;2023-04-03T15:42:03;6.43;;;1.90;;
70369;SDS011;57790;51.356;-2.906;2023-04-03T15:45:07;6.97;;;1.83;;
70369;SDS011;57790;51.356;-2.906;2023-04-03T15:48:08;6.65;;;2.00;;
70369;SDS011;57790;51.356;-2.906;2023-04-03T15:51:10;8.63;;;2.20;;
70369;SDS011;57790;51.356;-2.906;2023-04-03T15:54:11;6.60;;;2.03;;
70369;SDS011;57790;51.356;-2.906;2023-04-03T15:57:11;8.57;;;2.38;;
70369;SDS011;57790;51.356;-2.906;2023-04-03T16:00:12;8.90;;;2.53;;
70369;SDS011;57790;51.356;-2.906;2023-04-03T16:03:15;6.03;;;2.05;;
70369;SDS011;57790;51.356;-2.906;2023-04-03T16:06:17;7.07;;;2.20;;
70369;SDS011;57790;51.356;-2.906;2023-04-03T16:09:18;9.40;;;2.35;;
70369;SDS011;57790;51.356;-2.906;2023-04-03T16:12:19;7.35;;;2.13;;
70369;SDS011;57790;51.356;-2.906;2023-04-03T16:15:20;8.10;;;2.00;;
70369;SDS011;57790;51.356;-2.906;2023-04-03T16:18:20;6.10;;;1.90;;
70369;SDS011;57790;51.356;-2.906;2023-04-03T16:21:21;7.65;;;2.20;;
70369;SDS011;57790;51.356;-2.906;2023-04-03T16:24:22;5.40;;;2.20;;
70369;SDS011;57790;51.356;-2.906;2023-04-03T16:27:23;6.80;;;2.40;;
70369;SDS011;57790;51.356;-2.906;2023-04-03T16:30:27;7.30;;;2.00;;
70369;SDS011;57790;51.356;-2.906;2023-04-03T16:33:28;6.03;;;1.97;;
70369;SDS011;57790;51.356;-2.906;2023-04-03T16:36:30;6.70;;;2.03;;
70369;SDS011;57790;51.356;-2.906;2023-04-03T16:39:30;5.33;;;1.90;;
70369;SDS011;57790;51.356;-2.906;2023-04-03T16:42:31;6.63;;;2.20;;
70369;SDS011;57790;51.356;-2.906;2023-04-03T16:45:31;5.03;;;1.60;;
70369;SDS011;57790;51.356;-2.906;2023-04-03T16:48:32;6.23;;;1.90;;
70369;SDS011;57790;51.356;-2.906;2023-04-03T16:51:32;6.65;;;1.83;;
70369;SDS011;57790;51.356;-2.906;2023-04-03T16:54:33;7.77;;;2.20;;
70369;SDS011;57790;51.356;-2.906;2023-04-03T16:57:33;5.93;;;1.70;;
70369;SDS011;57790;51.356;-2.906;2023-04-03T17:00:33;5.60;;;1.87;;
70369;SDS011;57790;51.356;-2.906;2023-04-03T17:03:34;6.30;;;2.10;;
70369;SDS011;57790;51.356;-2.906;2023-04-03T17:06:35;6.22;;;2.10;;
70369;SDS011;57790;51.356;-2.906;2023-04-03T17:09:35;5.50;;;2.00;;
70369;SDS011;57790;51.356;-2.906;2023-04-03T17:12:36;7.33;;;2.00;;
70369;SDS011;57790;51.356;-2.906;2023-04-03T17:15:36;5.80;;;1.90;;
70369;SDS011;57790;51.356;-2.906;2023-04-03T17:18:37;6.10;;;1.90;;
70369;SDS011;57790;51.356;-2.906;2023-04-03T17:21:37;6.00;;;1.83;;
70369;SDS011;57790;51.356;-2.906;2023-04-03T17:24:38;6.75;;;2.10;;
70369;SDS011;57790;51.356;-2.906;2023-04-03T17:27:38;6.30;;;2.20;;
70369;SDS011;57790;51.356;-2.906;2023-04-03T17:30:39;5.43;;;1.80;;
70369;SDS011;57790;51.356;-2.906;2023-04-03T17:33:39;7.47;;;2.20;;
70369;SDS011;57790;51.356;-2.906;2023-04-03T17:36:40;6.20;;;1.60;;
70369;SDS011;57790;51.356;-2.906;2023-04-03T17:39:40;7.80;;;2.00;;
70369;SDS011;57790;51.356;-2.906;2023-04-03T17:42:41;5.63;;;1.93;;
70369;SDS011;57790;51.356;-2.906;2023-04-03T17:45:41;6.68;;;1.95;;
70369;SDS011;57790;51.356;-2.906;2023-04-03T17:48:43;7.80;;;2.13;;
70369;SDS011;57790;51.356;-2.906;2023-04-03T17:51:43;6.88;;;2.20;;
70369;SDS011;57790;51.356;-2.906;2023-04-03T17:54:44;8.07;;;2.90;;
70369;SDS011;57790;51.356;-2.906;2023-04-03T17:57:45;8.55;;;2.53;;
70369;SDS011;57790;51.356;-2.906;2023-04-03T18:00:45;8.93;;;2.57;;
70369;SDS011;57790;51.356;-2.906;2023-04-03T18:03:46;7.13;;;2.60;;
70369;SDS011;57790;51.356;-2.906;2023-04-03T18:06:48;7.40;;;2.78;;
70369;SDS011;57790;51.356;-2.906;2023-04-03T18:09:52;7.00;;;2.20;;
70369;SDS011;57790;51.356;-2.906;2023-04-03T18:12:54;8.57;;;2.45;;
70369;SDS011;57790;51.356;-2.906;2023-04-03T18:15:56;7.07;;;2.30;;
70369;SDS011;57790;51.356;-2.906;2023-04-03T18:18:56;8.13;;;2.80;;
70369;SDS011;57790;51.356;-2.906;2023-04-03T18:21:58;8.25;;;2.92;;
70369;SDS011;57790;51.356;-2.906;2023-04-03T18:25:02;7.27;;;2.33;;
70369;SDS011;57790;51.356;-2.906;2023-04-03T18:28:02;8.82;;;2.90;;
70369;SDS011;57790;51.356;-2.906;2023-04-03T18:31:05;8.15;;;2.53;;
70369;SDS011;57790;51.356;-2.906;2023-04-03T18:34:09;8.60;;;2.87;;
70369;SDS011;57790;51.356;-2.906;2023-04-03T18:37:11;9.45;;;2.58;;
70369;SDS011;57790;51.356;-2.906;2023-04-03T18:40:11;7.77;;;2.63;;
70369;SDS011;57790;51.356;-2.906;2023-04-03T18:43:12;10.07;;;2.60;;
70369;SDS011;57790;51.356;-2.906;2023-04-03T18:46:13;7.88;;;2.83;;
70369;SDS011;57790;51.356;-2.906;2023-04-03T18:49:14;8.53;;;2.87;;
70369;SDS011;57790;51.356;-2.906;2023-04-03T18:52:15;7.90;;;3.00;;
70369;SDS011;57790;51.356;-2.906;2023-04-03T18:55:16;9.30;;;3.20;;
70369;SDS011;57790;51.356;-2.906;2023-04-03T18:58:19;8.27;;;2.77;;
70369;SDS011;57790;51.356;-2.906;2023-04-03T19:01:19;8.88;;;3.40;;
70369;SDS011;57790;51.356;-2.906;2023-04-03T19:04:20;10.13;;;3.57;;
70369;SDS011;57790;51.356;-2.906;2023-04-03T19:07:21;10.63;;;4.03;;
70369;SDS011;57790;51.356;-2.906;2023-04-03T19:10:22;11.57;;;4.57;;
70369;SDS011;57790;51.356;-2.906;2023-04-03T19:13:22;8.93;;;4.00;;